sensor_id;sensor_type;location;lat;lon;timestamp;P1;durP1;ratioP1;P2;durP2;ratioP2
73872;SDS011;62206;47.568;9.364;2024-01-10T00:02:08;43.83;;;24.70;;
73872;SDS011;62206;47.568;9.364;2024-01-10T00:04:35;41.65;;;22.92;;
73872;SDS011;62206;47.568;9.364;2024-01-10T00:07:02;41.22;;;23.98;;
73872;SDS011;62206;47.568;9.364;2024-01-10T00:09:30;45.08;;;24.23;;
73872;SDS011;62206;47.568;9.364;2024-01-10T00:11:59;42.30;;;23.85;;
73872;SDS011;62206;47.568;9.364;2024-01-10T00:14:25;46.23;;;24.27;;
73872;SDS011;62206;47.568;9.364;2024-01-10T00:16:53;42.25;;;23.27;;
73872;SDS011;62206;47.568;9.364;2024-01-10T00:19:20;45.67;;;24.88;;
73872;SDS011;62206;47.568;9.364;2024-01-10T00:21:46;47.05;;;24.52;;
73872;SDS011;62206;47.568;9.364;2024-01-10T00:24:14;44.63;;;24.27;;
73872;SDS011;62206;47.568;9.364;2024-01-10T00:26:41;41.73;;;24.10;;
73872;SDS011;62206;47.568;9.364;2024-01-10T00:29:09;44.83;;;24.05;;
73872;SDS011;62206;47.568;9.364;2024-01-10T00:31:37;43.28;;;23.50;;
73872;SDS011;62206;47.568;9.364;2024-01-10T00:34:04;48.53;;;23.73;;
73872;SDS011;62206;47.568;9.364;2024-01-10T00:36:31;46.35;;;24.45;;
73872;SDS011;62206;47.568;9.364;2024-01-10T00:38:58;47.00;;;25.67;;
73872;SDS011;62206;47.568;9.364;2024-01-10T00:41:25;53.88;;;25.67;;
73872;SDS011;62206;47.568;9.364;2024-01-10T00:43:52;46.80;;;24.25;;
73872;SDS011;62206;47.568;9.364;2024-01-10T00:46:21;43.58;;;24.58;;
73872;SDS011;62206;47.568;9.364;2024-01-10T00:48:47;44.13;;;24.85;;
73872;SDS011;62206;47.568;9.364;2024-01-10T00:51:14;46.87;;;24.80;;
73872;SDS011;62206;47.568;9.364;2024-01-10T00:53:42;46.10;;;26.27;;
73872;SDS011;62206;47.568;9.364;2024-01-10T00:56:09;46.05;;;25.13;;
73872;SDS011;62206;47.568;9.364;2024-01-10T00:58:37;48.00;;;24.63;;
73872;SDS011;62206;47.568;9.364;2024-01-10T01:01:04;47.40;;;24.17;;
73872;SDS011;62206;47.568;9.364;2024-01-10T01:03:32;45.87;;;25.07;;
73872;SDS011;62206;47.568;9.364;2024-01-10T01:05:59;48.35;;;24.40;;
73872;SDS011;62206;47.568;9.364;2024-01-10T01:08:27;50.40;;;25.75;;
73872;SDS011;62206;47.568;9.364;2024-01-10T01:10:54;49.53;;;25.02;;
73872;SDS011;62206;47.568;9.364;2024-01-10T01:13:21;46.80;;;24.23;;
73872;SDS011;62206;47.568;9.364;2024-01-10T01:15:51;46.40;;;25.13;;
73872;SDS011;62206;47.568;9.364;2024-01-10T01:18:18;46.13;;;24.42;;
73872;SDS011;62206;47.568;9.364;2024-01-10T01:20:46;44.20;;;24.08;;
73872;SDS011;62206;47.568;9.364;2024-01-10T01:23:16;48.67;;;23.80;;
73872;SDS011;62206;47.568;9.364;2024-01-10T01:25:42;45.15;;;24.10;;
73872;SDS011;62206;47.568;9.364;2024-01-10T01:28:09;44.03;;;22.97;;
73872;SDS011;62206;47.568;9.364;2024-01-10T01:30:37;44.47;;;23.20;;
73872;SDS011;62206;47.568;9.364;2024-01-10T01:33:04;48.60;;;25.20;;
73872;SDS011;62206;47.568;9.364;2024-01-10T01:35:31;43.83;;;23.20;;
73872;SDS011;62206;47.568;9.364;2024-01-10T01:38:00;44.88;;;24.15;;
73872;SDS011;62206;47.568;9.364;2024-01-10T01:40:27;42.83;;;23.77;;
73872;SDS011;62206;47.568;9.364;2024-01-10T01:42:54;44.08;;;23.25;;
73872;SDS011;62206;47.568;9.364;2024-01-10T01:45:21;45.90;;;23.92;;
73872;SDS011;62206;47.568;9.364;2024-01-10T01:47:49;46.53;;;23.75;;
73872;SDS011;62206;47.568;9.364;2024-01-10T01:50:17;43.78;;;25.50;;
73872;SDS011;62206;47.568;9.364;2024-01-10T01:52:44;43.70;;;24.47;;
73872;SDS011;62206;47.568;9.364;2024-01-10T01:55:13;41.95;;;23.60;;
73872;SDS011;62206;47.568;9.364;2024-01-10T01:57:40;45.72;;;23.90;;
73872;SDS011;62206;47.568;9.364;2024-01-10T02:00:08;47.15;;;24.08;;
73872;SDS011;62206;47.568;9.364;2024-01-10T02:02:35;46.33;;;25.33;;
73872;SDS011;62206;47.568;9.364;2024-01-10T02:05:03;40.20;;;22.27;;
73872;SDS011;62206;47.568;9.364;2024-01-10T02:07:30;46.15;;;23.77;;
73872;SDS011;62206;47.568;9.364;2024-01-10T02:09:57;43.95;;;24.20;;
73872;SDS011;62206;47.568;9.364;2024-01-10T02:12:26;43.17;;;22.80;;
73872;SDS011;62206;47.568;9.364;2024-01-10T02:14:53;46.00;;;24.05;;
73872;SDS011;62206;47.568;9.364;2024-01-10T02:17:20;38.47;;;22.73;;
73872;SDS011;62206;47.568;9.364;2024-01-10T02:19:47;44.45;;;24.15;;
73872;SDS011;62206;47.568;9.364;2024-01-10T02:22:14;44.67;;;24.77;;
73872;SDS011;62206;47.568;9.364;2024-01-10T02:24:41;45.45;;;23.77;;
73872;SDS011;62206;47.568;9.364;2024-01-10T02:27:09;48.10;;;25.85;;
73872;SDS011;62206;47.568;9.364;2024-01-10T02:29:38;47.07;;;24.63;;
73872;SDS011;62206;47.568;9.364;2024-01-10T02:32:05;48.35;;;25.58;;
73872;SDS011;62206;47.568;9.364;2024-01-10T02:34:32;45.25;;;24.55;;
73872;SDS011;62206;47.568;9.364;2024-01-10T02:36:58;42.38;;;24.80;;
73872;SDS011;62206;47.568;9.364;2024-01-10T02:39:26;46.50;;;24.40;;
73872;SDS011;62206;47.568;9.364;2024-01-10T02:41:52;48.37;;;25.37;;
73872;SDS011;62206;47.568;9.364;2024-01-10T02:44:22;43.85;;;23.50;;
73872;SDS011;62206;47.568;9.364;2024-01-10T02:46:49;40.35;;;23.27;;
73872;SDS011;62206;47.568;9.364;2024-01-10T02:49:15;45.45;;;23.92;;
73872;SDS011;62206;47.568;9.364;2024-01-10T02:51:44;42.33;;;24.27;;
73872;SDS011;62206;47.568;9.364;2024-01-10T02:54:11;43.20;;;22.80;;
73872;SDS011;62206;47.568;9.364;2024-01-10T02:56:38;45.42;;;23.95;;
73872;SDS011;62206;47.568;9.364;2024-01-10T02:59:05;49.28;;;24.70;;
73872;SDS011;62206;47.568;9.364;2024-01-10T03:01:33;50.13;;;23.88;;
73872;SDS011;62206;47.568;9.364;2024-01-10T03:04:00;48.40;;;23.92;;
73872;SDS011;62206;47.568;9.364;2024-01-10T03:06:28;44.10;;;24.17;;
73872;SDS011;62206;47.568;9.364;2024-01-10T03:08:55;47.25;;;23.80;;
73872;SDS011;62206;47.568;9.364;2024-01-10T03:11:22;48.22;;;26.63;;
73872;SDS011;62206;47.568;9.364;2024-01-10T03:13:51;43.85;;;24.40;;
73872;SDS011;62206;47.568;9.364;2024-01-10T03:16:20;45.72;;;25.38;;
73872;SDS011;62206;47.568;9.364;2024-01-10T03:18:48;49.67;;;24.50;;
73872;SDS011;62206;47.568;9.364;2024-01-10T03:21:16;47.72;;;24.83;;
73872;SDS011;62206;47.568;9.364;2024-01-10T03:23:48;48.58;;;25.80;;
73872;SDS011;62206;47.568;9.364;2024-01-10T03:26:14;50.08;;;25.70;;
73872;SDS011;62206;47.568;9.364;2024-01-10T03:28:42;47.22;;;25.35;;
73872;SDS011;62206;47.568;9.364;2024-01-10T03:31:10;45.80;;;24.93;;
73872;SDS011;62206;47.568;9.364;2024-01-10T03:33:37;44.30;;;24.33;;
73872;SDS011;62206;47.568;9.364;2024-01-10T03:36:06;45.80;;;25.13;;
73872;SDS011;62206;47.568;9.364;2024-01-10T03:38:35;46.60;;;23.50;;
73872;SDS011;62206;47.568;9.364;2024-01-10T03:41:02;45.90;;;24.27;;
73872;SDS011;62206;47.568;9.364;2024-01-10T03:43:29;46.33;;;24.23;;
73872;SDS011;62206;47.568;9.364;2024-01-10T03:45:56;47.08;;;24.55;;
73872;SDS011;62206;47.568;9.364;2024-01-10T03:48:23;46.80;;;24.52;;
73872;SDS011;62206;47.568;9.364;2024-01-10T03:50:51;46.92;;;25.58;;
73872;SDS011;62206;47.568;9.364;2024-01-10T03:53:19;47.92;;;24.52;;
73872;SDS011;62206;47.568;9.364;2024-01-10T03:55:46;44.03;;;23.67;;
73872;SDS011;62206;47.568;9.364;2024-01-10T03:58:14;44.40;;;23.85;;
73872;SDS011;62206;47.568;9.364;2024-01-10T04:00:41;44.80;;;24.83;;
73872;SDS011;62206;47.568;9.364;2024-01-10T04:03:08;44.58;;;24.90;;
73872;SDS011;62206;47.568;9.364;2024-01-10T04:05:35;45.15;;;24.33;;
73872;SDS011;62206;47.568;9.364;2024-01-10T04:08:02;45.87;;;23.27;;
73872;SDS011;62206;47.568;9.364;2024-01-10T04:10:30;43.75;;;24.55;;
73872;SDS011;62206;47.568;9.364;2024-01-10T04:12:58;49.47;;;25.95;;
73872;SDS011;62206;47.568;9.364;2024-01-10T04:15:25;45.85;;;23.67;;
73872;SDS011;62206;47.568;9.364;2024-01-10T04:17:51;47.58;;;24.65;;
73872;SDS011;62206;47.568;9.364;2024-01-10T04:20:19;51.47;;;25.80;;
73872;SDS011;62206;47.568;9.364;2024-01-10T04:22:46;49.55;;;25.13;;
73872;SDS011;62206;47.568;9.364;2024-01-10T04:25:13;48.03;;;25.27;;
73872;SDS011;62206;47.568;9.364;2024-01-10T04:27:41;45.95;;;25.00;;
73872;SDS011;62206;47.568;9.364;2024-01-10T04:30:09;46.88;;;25.17;;
73872;SDS011;62206;47.568;9.364;2024-01-10T04:32:36;49.13;;;24.10;;
73872;SDS011;62206;47.568;9.364;2024-01-10T04:35:04;47.00;;;25.08;;
73872;SDS011;62206;47.568;9.364;2024-01-10T04:37:32;48.92;;;25.20;;
73872;SDS011;62206;47.568;9.364;2024-01-10T04:39:58;46.95;;;24.73;;
73872;SDS011;62206;47.568;9.364;2024-01-10T04:42:26;51.60;;;26.05;;
73872;SDS011;62206;47.568;9.364;2024-01-10T04:44:54;50.57;;;25.83;;
73872;SDS011;62206;47.568;9.364;2024-01-10T04:47:21;48.88;;;25.27;;
73872;SDS011;62206;47.568;9.364;2024-01-10T04:49:48;53.83;;;25.98;;
73872;SDS011;62206;47.568;9.364;2024-01-10T04:52:15;51.90;;;25.40;;
73872;SDS011;62206;47.568;9.364;2024-01-10T04:54:42;48.58;;;27.50;;
73872;SDS011;62206;47.568;9.364;2024-01-10T04:57:10;52.77;;;25.97;;
73872;SDS011;62206;47.568;9.364;2024-01-10T04:59:37;49.85;;;26.50;;
73872;SDS011;62206;47.568;9.364;2024-01-10T05:02:05;49.58;;;25.95;;
73872;SDS011;62206;47.568;9.364;2024-01-10T05:04:32;48.22;;;25.75;;
73872;SDS011;62206;47.568;9.364;2024-01-10T05:06:59;54.50;;;27.35;;
73872;SDS011;62206;47.568;9.364;2024-01-10T05:09:26;51.90;;;26.47;;
73872;SDS011;62206;47.568;9.364;2024-01-10T05:12:18;49.25;;;25.58;;
73872;SDS011;62206;47.568;9.364;2024-01-10T05:14:45;52.58;;;27.13;;
73872;SDS011;62206;47.568;9.364;2024-01-10T05:17:14;52.15;;;26.85;;
73872;SDS011;62206;47.568;9.364;2024-01-10T05:19:41;50.58;;;26.13;;
73872;SDS011;62206;47.568;9.364;2024-01-10T05:22:10;55.60;;;26.63;;
73872;SDS011;62206;47.568;9.364;2024-01-10T05:24:37;52.95;;;25.63;;
73872;SDS011;62206;47.568;9.364;2024-01-10T05:27:04;50.05;;;26.38;;
73872;SDS011;62206;47.568;9.364;2024-01-10T05:29:32;52.90;;;25.55;;
73872;SDS011;62206;47.568;9.364;2024-01-10T05:31:59;47.90;;;25.38;;
73872;SDS011;62206;47.568;9.364;2024-01-10T05:34:27;53.37;;;26.17;;
73872;SDS011;62206;47.568;9.364;2024-01-10T05:36:54;51.60;;;26.02;;
73872;SDS011;62206;47.568;9.364;2024-01-10T05:39:21;51.72;;;25.50;;
73872;SDS011;62206;47.568;9.364;2024-01-10T05:41:48;49.25;;;25.27;;
73872;SDS011;62206;47.568;9.364;2024-01-10T05:44:16;56.88;;;28.83;;
73872;SDS011;62206;47.568;9.364;2024-01-10T05:46:43;54.23;;;27.40;;
73872;SDS011;62206;47.568;9.364;2024-01-10T05:49:09;57.30;;;27.13;;
73872;SDS011;62206;47.568;9.364;2024-01-10T05:51:39;53.22;;;27.27;;
73872;SDS011;62206;47.568;9.364;2024-01-10T05:54:06;51.45;;;26.27;;
73872;SDS011;62206;47.568;9.364;2024-01-10T05:56:33;53.55;;;27.00;;
73872;SDS011;62206;47.568;9.364;2024-01-10T05:59:01;56.53;;;26.07;;
73872;SDS011;62206;47.568;9.364;2024-01-10T06:01:28;54.35;;;26.58;;
73872;SDS011;62206;47.568;9.364;2024-01-10T06:03:55;51.35;;;26.23;;
73872;SDS011;62206;47.568;9.364;2024-01-10T06:06:22;48.20;;;25.45;;
73872;SDS011;62206;47.568;9.364;2024-01-10T06:08:51;51.72;;;26.27;;
73872;SDS011;62206;47.568;9.364;2024-01-10T06:11:18;49.70;;;25.73;;
73872;SDS011;62206;47.568;9.364;2024-01-10T06:13:46;49.05;;;25.98;;
73872;SDS011;62206;47.568;9.364;2024-01-10T06:16:13;53.88;;;27.45;;
73872;SDS011;62206;47.568;9.364;2024-01-10T06:18:39;47.72;;;25.42;;
73872;SDS011;62206;47.568;9.364;2024-01-10T06:21:07;49.88;;;25.75;;
73872;SDS011;62206;47.568;9.364;2024-01-10T06:23:34;51.23;;;25.03;;
73872;SDS011;62206;47.568;9.364;2024-01-10T06:26:02;50.60;;;26.25;;
73872;SDS011;62206;47.568;9.364;2024-01-10T06:28:31;50.80;;;27.08;;
73872;SDS011;62206;47.568;9.364;2024-01-10T06:30:58;49.78;;;25.70;;
73872;SDS011;62206;47.568;9.364;2024-01-10T06:33:25;55.80;;;29.52;;
73872;SDS011;62206;47.568;9.364;2024-01-10T06:35:52;51.70;;;25.60;;
73872;SDS011;62206;47.568;9.364;2024-01-10T06:38:19;52.85;;;26.70;;
73872;SDS011;62206;47.568;9.364;2024-01-10T06:40:47;48.28;;;25.75;;
73872;SDS011;62206;47.568;9.364;2024-01-10T06:43:17;50.83;;;26.10;;
73872;SDS011;62206;47.568;9.364;2024-01-10T06:45:44;51.20;;;26.95;;
73872;SDS011;62206;47.568;9.364;2024-01-10T06:48:11;52.13;;;26.47;;
73872;SDS011;62206;47.568;9.364;2024-01-10T06:50:39;50.72;;;26.42;;
73872;SDS011;62206;47.568;9.364;2024-01-10T06:53:06;51.63;;;26.00;;
73872;SDS011;62206;47.568;9.364;2024-01-10T06:55:33;51.05;;;26.05;;
73872;SDS011;62206;47.568;9.364;2024-01-10T06:58:00;49.80;;;25.25;;
73872;SDS011;62206;47.568;9.364;2024-01-10T07:00:29;50.37;;;26.27;;
73872;SDS011;62206;47.568;9.364;2024-01-10T07:02:56;49.88;;;25.20;;
73872;SDS011;62206;47.568;9.364;2024-01-10T07:05:24;52.78;;;25.80;;
73872;SDS011;62206;47.568;9.364;2024-01-10T07:07:51;48.35;;;25.85;;
73872;SDS011;62206;47.568;9.364;2024-01-10T07:10:18;51.30;;;27.02;;
73872;SDS011;62206;47.568;9.364;2024-01-10T07:12:45;47.07;;;25.83;;
73872;SDS011;62206;47.568;9.364;2024-01-10T07:15:12;50.35;;;26.88;;
73872;SDS011;62206;47.568;9.364;2024-01-10T07:17:41;49.47;;;26.33;;
73872;SDS011;62206;47.568;9.364;2024-01-10T07:20:09;50.40;;;25.98;;
73872;SDS011;62206;47.568;9.364;2024-01-10T07:22:37;47.58;;;24.58;;
73872;SDS011;62206;47.568;9.364;2024-01-10T07:25:06;46.27;;;25.13;;
73872;SDS011;62206;47.568;9.364;2024-01-10T07:27:34;45.45;;;24.08;;
73872;SDS011;62206;47.568;9.364;2024-01-10T07:30:03;46.80;;;25.02;;
73872;SDS011;62206;47.568;9.364;2024-01-10T07:32:36;50.22;;;25.17;;
73872;SDS011;62206;47.568;9.364;2024-01-10T07:35:04;53.20;;;26.50;;
73872;SDS011;62206;47.568;9.364;2024-01-10T07:37:34;53.80;;;24.53;;
73872;SDS011;62206;47.568;9.364;2024-01-10T07:40:02;46.47;;;24.42;;
73872;SDS011;62206;47.568;9.364;2024-01-10T07:42:31;49.95;;;25.63;;
73872;SDS011;62206;47.568;9.364;2024-01-10T07:44:58;50.15;;;25.00;;
73872;SDS011;62206;47.568;9.364;2024-01-10T07:47:25;52.75;;;26.33;;
73872;SDS011;62206;47.568;9.364;2024-01-10T07:49:52;53.30;;;27.07;;
73872;SDS011;62206;47.568;9.364;2024-01-10T07:52:20;52.85;;;25.75;;
73872;SDS011;62206;47.568;9.364;2024-01-10T07:54:48;51.20;;;27.35;;
73872;SDS011;62206;47.568;9.364;2024-01-10T07:57:14;52.97;;;26.15;;
73872;SDS011;62206;47.568;9.364;2024-01-10T07:59:43;53.43;;;26.20;;
73872;SDS011;62206;47.568;9.364;2024-01-10T08:02:10;50.05;;;25.90;;
73872;SDS011;62206;47.568;9.364;2024-01-10T08:04:37;50.70;;;27.48;;
73872;SDS011;62206;47.568;9.364;2024-01-10T08:07:04;56.00;;;25.70;;
73872;SDS011;62206;47.568;9.364;2024-01-10T08:09:33;50.67;;;25.73;;
73872;SDS011;62206;47.568;9.364;2024-01-10T08:12:01;57.37;;;28.53;;
73872;SDS011;62206;47.568;9.364;2024-01-10T08:14:29;55.47;;;26.55;;
73872;SDS011;62206;47.568;9.364;2024-01-10T08:16:56;51.72;;;27.70;;
73872;SDS011;62206;47.568;9.364;2024-01-10T08:19:24;59.78;;;27.98;;
73872;SDS011;62206;47.568;9.364;2024-01-10T08:21:51;52.63;;;27.38;;
73872;SDS011;62206;47.568;9.364;2024-01-10T08:24:19;58.00;;;27.50;;
73872;SDS011;62206;47.568;9.364;2024-01-10T08:26:47;51.97;;;26.95;;
73872;SDS011;62206;47.568;9.364;2024-01-10T08:29:17;50.20;;;26.90;;
73872;SDS011;62206;47.568;9.364;2024-01-10T08:31:44;54.75;;;26.92;;
73872;SDS011;62206;47.568;9.364;2024-01-10T08:34:11;53.22;;;27.05;;
73872;SDS011;62206;47.568;9.364;2024-01-10T08:36:38;52.90;;;26.37;;
73872;SDS011;62206;47.568;9.364;2024-01-10T08:39:06;46.97;;;24.77;;
73872;SDS011;62206;47.568;9.364;2024-01-10T08:41:33;57.92;;;28.85;;
73872;SDS011;62206;47.568;9.364;2024-01-10T08:44:05;55.42;;;27.05;;
73872;SDS011;62206;47.568;9.364;2024-01-10T08:46:32;59.88;;;28.65;;
73872;SDS011;62206;47.568;9.364;2024-01-10T08:48:59;56.33;;;27.80;;
73872;SDS011;62206;47.568;9.364;2024-01-10T08:51:26;58.00;;;28.50;;
73872;SDS011;62206;47.568;9.364;2024-01-10T08:53:54;55.80;;;29.20;;
73872;SDS011;62206;47.568;9.364;2024-01-10T08:56:21;59.53;;;28.55;;
73872;SDS011;62206;47.568;9.364;2024-01-10T08:58:49;49.53;;;26.58;;
73872;SDS011;62206;47.568;9.364;2024-01-10T09:01:17;46.27;;;25.90;;
73872;SDS011;62206;47.568;9.364;2024-01-10T09:03:44;52.15;;;28.23;;
73872;SDS011;62206;47.568;9.364;2024-01-10T09:06:12;47.05;;;25.52;;
73872;SDS011;62206;47.568;9.364;2024-01-10T09:08:40;44.92;;;25.52;;
73872;SDS011;62206;47.568;9.364;2024-01-10T09:11:07;51.45;;;27.17;;
73872;SDS011;62206;47.568;9.364;2024-01-10T09:13:34;53.07;;;26.83;;
73872;SDS011;62206;47.568;9.364;2024-01-10T09:16:04;46.05;;;24.17;;
73872;SDS011;62206;47.568;9.364;2024-01-10T09:18:32;48.33;;;26.10;;
73872;SDS011;62206;47.568;9.364;2024-01-10T09:20:59;52.38;;;26.67;;
73872;SDS011;62206;47.568;9.364;2024-01-10T09:23:27;52.08;;;27.45;;
73872;SDS011;62206;47.568;9.364;2024-01-10T09:25:53;51.77;;;27.93;;
73872;SDS011;62206;47.568;9.364;2024-01-10T09:28:20;49.88;;;25.05;;
73872;SDS011;62206;47.568;9.364;2024-01-10T09:30:48;49.50;;;27.42;;
73872;SDS011;62206;47.568;9.364;2024-01-10T09:33:16;50.88;;;26.45;;
73872;SDS011;62206;47.568;9.364;2024-01-10T09:35:45;47.58;;;25.67;;
73872;SDS011;62206;47.568;9.364;2024-01-10T09:38:12;52.90;;;27.23;;
73872;SDS011;62206;47.568;9.364;2024-01-10T09:40:39;48.75;;;25.70;;
73872;SDS011;62206;47.568;9.364;2024-01-10T09:43:07;49.70;;;25.92;;
73872;SDS011;62206;47.568;9.364;2024-01-10T09:45:35;47.35;;;25.30;;
73872;SDS011;62206;47.568;9.364;2024-01-10T09:48:02;47.65;;;25.27;;
73872;SDS011;62206;47.568;9.364;2024-01-10T09:50:29;52.47;;;27.27;;
73872;SDS011;62206;47.568;9.364;2024-01-10T09:53:01;49.45;;;26.35;;
73872;SDS011;62206;47.568;9.364;2024-01-10T09:55:34;48.97;;;25.73;;
73872;SDS011;62206;47.568;9.364;2024-01-10T09:58:02;46.28;;;24.48;;
73872;SDS011;62206;47.568;9.364;2024-01-10T10:00:30;44.30;;;24.02;;
73872;SDS011;62206;47.568;9.364;2024-01-10T10:02:57;44.87;;;24.23;;
73872;SDS011;62206;47.568;9.364;2024-01-10T10:05:25;49.75;;;24.55;;
73872;SDS011;62206;47.568;9.364;2024-01-10T10:07:52;44.53;;;23.35;;
73872;SDS011;62206;47.568;9.364;2024-01-10T10:10:21;47.25;;;24.02;;
73872;SDS011;62206;47.568;9.364;2024-01-10T10:12:49;42.65;;;22.90;;
73872;SDS011;62206;47.568;9.364;2024-01-10T10:15:18;48.60;;;24.70;;
73872;SDS011;62206;47.568;9.364;2024-01-10T10:17:47;49.25;;;24.95;;
73872;SDS011;62206;47.568;9.364;2024-01-10T10:20:17;44.90;;;24.08;;
73872;SDS011;62206;47.568;9.364;2024-01-10T10:22:57;46.97;;;24.20;;
73872;SDS011;62206;47.568;9.364;2024-01-10T10:25:28;40.72;;;23.35;;
73872;SDS011;62206;47.568;9.364;2024-01-10T10:27:56;45.30;;;23.80;;
73872;SDS011;62206;47.568;9.364;2024-01-10T10:30:23;45.03;;;23.58;;
73872;SDS011;62206;47.568;9.364;2024-01-10T10:32:50;45.58;;;24.83;;
73872;SDS011;62206;47.568;9.364;2024-01-10T10:35:18;43.78;;;22.70;;
73872;SDS011;62206;47.568;9.364;2024-01-10T10:37:45;46.55;;;24.75;;
73872;SDS011;62206;47.568;9.364;2024-01-10T10:40:14;44.37;;;23.33;;
73872;SDS011;62206;47.568;9.364;2024-01-10T10:42:43;45.40;;;23.88;;
73872;SDS011;62206;47.568;9.364;2024-01-10T10:45:12;44.13;;;22.98;;
73872;SDS011;62206;47.568;9.364;2024-01-10T10:47:42;43.85;;;23.13;;
73872;SDS011;62206;47.568;9.364;2024-01-10T10:50:12;48.97;;;23.83;;
73872;SDS011;62206;47.568;9.364;2024-01-10T10:52:40;46.43;;;24.23;;
73872;SDS011;62206;47.568;9.364;2024-01-10T10:55:10;48.10;;;24.58;;
73872;SDS011;62206;47.568;9.364;2024-01-10T10:57:40;48.45;;;24.92;;
73872;SDS011;62206;47.568;9.364;2024-01-10T11:00:09;51.80;;;25.40;;
73872;SDS011;62206;47.568;9.364;2024-01-10T11:02:41;50.25;;;25.02;;
73872;SDS011;62206;47.568;9.364;2024-01-10T11:05:09;49.20;;;24.93;;
73872;SDS011;62206;47.568;9.364;2024-01-10T11:07:36;49.20;;;24.85;;
73872;SDS011;62206;47.568;9.364;2024-01-10T11:10:04;48.15;;;24.10;;
73872;SDS011;62206;47.568;9.364;2024-01-10T11:12:42;48.63;;;24.70;;
73872;SDS011;62206;47.568;9.364;2024-01-10T11:15:21;45.33;;;24.52;;
73872;SDS011;62206;47.568;9.364;2024-01-10T11:18:06;47.87;;;25.07;;
73872;SDS011;62206;47.568;9.364;2024-01-10T11:20:53;45.80;;;23.95;;
73872;SDS011;62206;47.568;9.364;2024-01-10T11:23:40;48.25;;;25.00;;
73872;SDS011;62206;47.568;9.364;2024-01-10T11:26:10;47.38;;;24.08;;
73872;SDS011;62206;47.568;9.364;2024-01-10T11:28:39;47.97;;;25.70;;
73872;SDS011;62206;47.568;9.364;2024-01-10T11:31:07;43.33;;;23.27;;
73872;SDS011;62206;47.568;9.364;2024-01-10T11:33:35;41.78;;;24.17;;
73872;SDS011;62206;47.568;9.364;2024-01-10T11:36:08;47.90;;;26.33;;
73872;SDS011;62206;47.568;9.364;2024-01-10T11:41:25;46.95;;;24.45;;
73872;SDS011;62206;47.568;9.364;2024-01-10T11:46:54;44.55;;;23.02;;
73872;SDS011;62206;47.568;9.364;2024-01-10T11:49:23;46.65;;;24.85;;
73872;SDS011;62206;47.568;9.364;2024-01-10T11:51:52;42.90;;;23.25;;
73872;SDS011;62206;47.568;9.364;2024-01-10T11:54:38;45.03;;;23.40;;
73872;SDS011;62206;47.568;9.364;2024-01-10T11:57:10;44.53;;;25.30;;
73872;SDS011;62206;47.568;9.364;2024-01-10T11:59:39;52.00;;;26.17;;
73872;SDS011;62206;47.568;9.364;2024-01-10T12:02:08;48.08;;;27.15;;
73872;SDS011;62206;47.568;9.364;2024-01-10T12:04:34;50.92;;;26.55;;
73872;SDS011;62206;47.568;9.364;2024-01-10T12:07:02;51.80;;;26.63;;
73872;SDS011;62206;47.568;9.364;2024-01-10T12:09:30;50.23;;;26.30;;
73872;SDS011;62206;47.568;9.364;2024-01-10T12:11:57;51.90;;;28.05;;
73872;SDS011;62206;47.568;9.364;2024-01-10T12:14:25;49.63;;;27.65;;
73872;SDS011;62206;47.568;9.364;2024-01-10T12:16:53;45.47;;;26.95;;
73872;SDS011;62206;47.568;9.364;2024-01-10T12:19:21;47.38;;;27.33;;
73872;SDS011;62206;47.568;9.364;2024-01-10T12:21:49;49.30;;;26.03;;
73872;SDS011;62206;47.568;9.364;2024-01-10T12:24:16;49.55;;;27.58;;
73872;SDS011;62206;47.568;9.364;2024-01-10T12:26:43;48.00;;;27.25;;
73872;SDS011;62206;47.568;9.364;2024-01-10T12:29:11;52.60;;;28.92;;
73872;SDS011;62206;47.568;9.364;2024-01-10T12:31:38;54.15;;;28.25;;
73872;SDS011;62206;47.568;9.364;2024-01-10T12:34:08;50.50;;;27.53;;
73872;SDS011;62206;47.568;9.364;2024-01-10T12:36:36;50.28;;;29.63;;
73872;SDS011;62206;47.568;9.364;2024-01-10T12:39:03;48.20;;;29.75;;
73872;SDS011;62206;47.568;9.364;2024-01-10T12:41:32;50.75;;;28.33;;
73872;SDS011;62206;47.568;9.364;2024-01-10T12:44:00;49.30;;;27.45;;
73872;SDS011;62206;47.568;9.364;2024-01-10T12:46:29;49.27;;;27.30;;
73872;SDS011;62206;47.568;9.364;2024-01-10T12:48:59;54.42;;;28.25;;
73872;SDS011;62206;47.568;9.364;2024-01-10T12:51:29;57.88;;;31.67;;
73872;SDS011;62206;47.568;9.364;2024-01-10T12:53:57;53.30;;;29.50;;
73872;SDS011;62206;47.568;9.364;2024-01-10T12:56:25;56.53;;;29.20;;
73872;SDS011;62206;47.568;9.364;2024-01-10T12:58:53;53.60;;;27.83;;
73872;SDS011;62206;47.568;9.364;2024-01-10T13:01:21;56.47;;;31.08;;
73872;SDS011;62206;47.568;9.364;2024-01-10T13:03:48;57.83;;;28.65;;
73872;SDS011;62206;47.568;9.364;2024-01-10T13:06:16;55.45;;;29.25;;
73872;SDS011;62206;47.568;9.364;2024-01-10T13:08:45;54.47;;;29.98;;
73872;SDS011;62206;47.568;9.364;2024-01-10T13:11:12;53.77;;;29.47;;
73872;SDS011;62206;47.568;9.364;2024-01-10T13:13:40;51.30;;;28.85;;
73872;SDS011;62206;47.568;9.364;2024-01-10T13:16:08;58.38;;;31.25;;
73872;SDS011;62206;47.568;9.364;2024-01-10T13:18:36;52.15;;;29.67;;
73872;SDS011;62206;47.568;9.364;2024-01-10T13:21:04;55.95;;;30.02;;
73872;SDS011;62206;47.568;9.364;2024-01-10T13:23:31;58.33;;;29.87;;
73872;SDS011;62206;47.568;9.364;2024-01-10T13:26:00;58.55;;;31.23;;
73872;SDS011;62206;47.568;9.364;2024-01-10T13:28:28;52.25;;;30.02;;
73872;SDS011;62206;47.568;9.364;2024-01-10T13:30:55;54.55;;;27.42;;
73872;SDS011;62206;47.568;9.364;2024-01-10T13:33:22;58.60;;;30.50;;
73872;SDS011;62206;47.568;9.364;2024-01-10T13:35:51;53.93;;;29.53;;
73872;SDS011;62206;47.568;9.364;2024-01-10T13:38:18;54.45;;;29.83;;
73872;SDS011;62206;47.568;9.364;2024-01-10T13:40:45;56.85;;;30.23;;
73872;SDS011;62206;47.568;9.364;2024-01-10T13:43:14;54.53;;;28.35;;
73872;SDS011;62206;47.568;9.364;2024-01-10T13:45:42;53.67;;;28.98;;
73872;SDS011;62206;47.568;9.364;2024-01-10T13:48:09;53.97;;;29.20;;
73872;SDS011;62206;47.568;9.364;2024-01-10T13:50:37;52.40;;;28.55;;
73872;SDS011;62206;47.568;9.364;2024-01-10T13:53:03;56.63;;;29.05;;
73872;SDS011;62206;47.568;9.364;2024-01-10T13:55:30;54.45;;;28.92;;
73872;SDS011;62206;47.568;9.364;2024-01-10T13:57:58;51.10;;;28.25;;
73872;SDS011;62206;47.568;9.364;2024-01-10T14:00:26;54.40;;;29.30;;
73872;SDS011;62206;47.568;9.364;2024-01-10T14:02:53;51.75;;;28.67;;
73872;SDS011;62206;47.568;9.364;2024-01-10T14:05:28;51.03;;;27.58;;
73872;SDS011;62206;47.568;9.364;2024-01-10T14:07:56;50.13;;;27.77;;
73872;SDS011;62206;47.568;9.364;2024-01-10T14:10:23;49.28;;;26.98;;
73872;SDS011;62206;47.568;9.364;2024-01-10T14:12:50;49.77;;;27.03;;
73872;SDS011;62206;47.568;9.364;2024-01-10T14:15:17;50.80;;;27.35;;
73872;SDS011;62206;47.568;9.364;2024-01-10T14:17:46;48.80;;;27.80;;
73872;SDS011;62206;47.568;9.364;2024-01-10T14:20:14;48.55;;;26.75;;
73872;SDS011;62206;47.568;9.364;2024-01-10T14:22:41;45.25;;;25.02;;
73872;SDS011;62206;47.568;9.364;2024-01-10T14:25:08;51.40;;;27.53;;
73872;SDS011;62206;47.568;9.364;2024-01-10T14:27:36;51.92;;;28.25;;
73872;SDS011;62206;47.568;9.364;2024-01-10T14:30:05;53.13;;;27.42;;
73872;SDS011;62206;47.568;9.364;2024-01-10T14:32:34;52.08;;;28.40;;